Time;durP1;ratioP1;P1;durP2;ratioP2;P2;SDS_P1;SDS_P2;PMS_P1;PMS_P2;Temp;Humidity;BMP_temperature;BMP_pressure;BME280_temperature;BME280_humidity;BME280_pressure;Samples;Min_cycle;Max_cycle;Signal;HPM_P1;HPM_P2
2023/04/11 00:00:08;;;;;;;;;;;;;;;15.19;100.00;100637.03;4996512;28;1229;-85
2023/04/11 00:02:34;;;;;;;;;;;;;;;15.21;100.00;100641.25;4998013;28;908;-85
2023/04/11 00:05:01;;;;;;;;;;;;;;;15.02;100.00;100637.91;4996393;28;1894;-85
2023/04/11 00:07:27;;;;;;;;;;;;;;;15.19;100.00;100627.06;4997516;28;860;-84
2023/04/11 00:09:53;;;;;;;;;;;;;;;15.25;100.00;100622.06;4996714;28;1253;-85
2023/04/11 00:12:19;;;;;;;;;;;;;;;15.35;100.00;100615.53;4996168;28;954;-84
2023/04/11 00:14:47;;;;;;;;;;;;;;;15.27;100.00;100610.06;4997722;28;907;-84
2023/04/11 00:17:16;;;;;;;;;;;;;;;15.39;100.00;100591.72;4994941;28;997;-85
2023/04/11 00:19:44;;;;;;;;;;;;;;;15.28;100.00;100592.84;4995871;28;1221;-85
2023/04/11 00:22:12;;;;;;;;;;;;;;;15.24;100.00;100577.97;4997312;28;876;-84
2023/04/11 00:24:38;;;;;;;;;;;;;;;15.34;100.00;100577.81;4997459;28;1966;-84
2023/04/11 00:27:05;;;;;;;;;;;;;;;15.29;100.00;100578.31;4995832;28;942;-84
2023/04/11 00:29:32;;;;;;;;;;;;;;;15.20;100.00;100576.56;4997732;28;1255;-85
2023/04/11 00:31:59;;;;;;;;;;;;;;;15.20;100.00;100577.41;4997168;28;900;-84
2023/04/11 00:34:26;;;;;;;;;;;;;;;14.96;100.00;100558.38;4997726;28;786;-85
2023/04/11 00:36:52;;;;;;;;;;;;;;;15.05;100.00;100552.03;4996914;28;825;-85
2023/04/11 00:39:21;;;;;;;;;;;;;;;14.87;100.00;100549.38;4997463;28;922;-85
2023/04/11 00:41:47;;;;;;;;;;;;;;;14.91;100.00;100556.13;4997351;28;801;-84
2023/04/11 00:44:14;;;;;;;;;;;;;;;14.93;100.00;100534.34;4996058;28;874;-85
2023/04/11 00:46:42;;;;;;;;;;;;;;;15.05;100.00;100543.06;4997061;28;1961;-85
2023/04/11 00:49:10;;;;;;;;;;;;;;;14.73;100.00;100559.88;4997115;28;900;-84
2023/04/11 00:51:36;;;;;;;;;;;;;;;14.55;100.00;100576.97;4995765;28;1183;-84
2023/04/11 00:54:02;;;;;;;;;;;;;;;14.67;100.00;100607.25;4997563;28;742;-84
2023/04/11 00:56:28;;;;;;;;;;;;;;;14.28;100.00;100706.53;4998786;28;821;-84
2023/04/11 00:58:55;;;;;;;;;;;;;;;13.84;100.00;100679.31;5000559;28;806;-82
2023/04/11 01:01:24;;;;;;;;;;;;;;;13.47;100.00;100680.19;5000226;28;1239;-82
2023/04/11 01:03:50;;;;;;;;;;;;;;;13.35;100.00;100678.63;5000315;28;825;-82
2023/04/11 01:06:18;;;;;;;;;;;;;;;13.34;100.00;100693.09;4999533;28;1959;-82
2023/04/11 01:08:46;;;;;;;;;;;;;;;13.21;100.00;100684.50;4999483;28;626;-82
2023/04/11 01:11:16;;;;;;;;;;;;;;;13.25;100.00;100677.81;4999966;28;1176;-82
2023/04/11 01:13:43;;;;;;;;;;;;;;;13.30;100.00;100655.84;4999262;28;539;-82
2023/04/11 01:16:09;;;;;;;;;;;;;;;13.49;100.00;100616.22;4999290;28;746;-82
2023/04/11 01:18:35;;;;;;;;;;;;;;;13.66;100.00;100611.00;4998545;28;813;-82
2023/04/11 01:21:01;;;;;;;;;;;;;;;13.64;100.00;100621.94;4999299;28;1253;-82
2023/04/11 01:23:28;;;;;;;;;;;;;;;13.73;100.00;100620.22;4999444;28;911;-82
2023/04/11 01:25:54;;;;;;;;;;;;;;;13.80;100.00;100625.88;4999342;28;1894;-82
2023/04/11 01:28:20;;;;;;;;;;;;;;;13.77;100.00;100635.09;4998507;28;867;-82
2023/04/11 01:30:47;;;;;;;;;;;;;;;13.58;100.00;100630.66;4998980;28;1193;-82
2023/04/11 01:33:14;;;;;;;;;;;;;;;13.60;100.00;100627.81;4998828;28;874;-82
2023/04/11 01:35:40;;;;;;;;;;;;;;;13.59;100.00;100626.09;4998793;28;849;-82
2023/04/11 01:38:07;;;;;;;;;;;;;;;13.57;100.00;100622.69;4998434;28;805;-82
2023/04/11 01:40:33;;;;;;;;;;;;;;;13.29;100.00;100598.41;4998895;28;1186;-82
2023/04/11 01:43:03;;;;;;;;;;;;;;;13.32;100.00;100586.50;4998731;28;872;-82
2023/04/11 01:45:30;;;;;;;;;;;;;;;13.42;100.00;100590.00;4998790;28;1902;-82
2023/04/11 01:47:56;;;;;;;;;;;;;;;13.48;100.00;100602.91;4998722;28;805;-82
2023/04/11 01:50:23;;;;;;;;;;;;;;;13.54;100.00;100615.75;4999044;28;1164;-82
2023/04/11 01:52:50;;;;;;;;;;;;;;;13.34;100.00;100617.66;4999891;28;895;-82
2023/04/11 01:55:16;;;;;;;;;;;;;;;13.42;100.00;100619.63;4999032;28;833;-82
2023/04/11 01:57:43;;;;;;;;;;;;;;;13.45;100.00;100611.25;4998781;28;907;-82
2023/04/11 02:00:09;;;;;;;;;;;;;;;13.52;100.00;100620.44;4999170;28;1177;-82
2023/04/11 02:02:36;;;;;;;;;;;;;;;13.54;100.00;100613.06;4998780;28;808;-82
2023/04/11 02:05:03;;;;;;;;;;;;;;;13.45;100.00;100614.78;4999180;28;1894;-82
2023/04/11 02:07:29;;;;;;;;;;;;;;;13.41;100.00;100615.25;4998390;28;817;-82
2023/04/11 02:09:56;;;;;;;;;;;;;;;13.40;100.00;100616.25;4998872;28;1248;-82
2023/04/11 02:12:22;;;;;;;;;;;;;;;13.38;100.00;100613.72;4998699;28;899;-82
2023/04/11 02:14:48;;;;;;;;;;;;;;;13.01;100.00;100626.25;4998555;28;929;-82
2023/04/11 02:17:16;;;;;;;;;;;;;;;13.15;100.00;100621.22;4997983;28;891;-82
2023/04/11 02:19:46;;;;;;;;;;;;;;;13.24;100.00;100624.09;4998190;28;1223;-82
2023/04/11 02:22:13;;;;;;;;;;;;;;;13.16;100.00;100631.00;4998305;28;825;-82
2023/04/11 02:24:40;;;;;;;;;;;;;;;13.15;100.00;100628.47;4998629;28;781;-82
2023/04/11 02:27:06;;;;;;;;;;;;;;;12.96;100.00;100626.66;5001207;28;1863;-82
2023/04/11 02:29:33;;;;;;;;;;;;;;;12.86;100.00;100626.66;5001595;28;1245;-82
2023/04/11 02:31:59;;;;;;;;;;;;;;;12.78;100.00;100625.69;5001482;28;821;-82
2023/04/11 02:34:25;;;;;;;;;;;;;;;12.57;100.00;100640.13;5000984;28;801;-82
2023/04/11 02:36:51;;;;;;;;;;;;;;;12.58;100.00;100632.91;5001080;28;801;-82
2023/04/11 02:39:22;;;;;;;;;;;;;;;12.56;100.00;100633.06;5002408;28;793;-82
2023/04/11 02:41:49;;;;;;;;;;;;;;;12.42;100.00;100625.41;5002072;28;616;-82
2023/04/11 02:44:18;;;;;;;;;;;;;;;12.33;100.00;100628.94;5002035;28;821;-82
2023/04/11 02:46:44;;;;;;;;;;;;;;;12.10;100.00;100628.34;4999809;28;1907;-82
2023/04/11 02:49:10;;;;;;;;;;;;;;;12.01;100.00;100626.50;5001560;28;730;-82
2023/04/11 02:51:36;;;;;;;;;;;;;;;12.16;100.00;100626.94;5001838;28;1186;-82
2023/04/11 02:54:02;;;;;;;;;;;;;;;12.12;100.00;100636.28;5000277;28;851;-82
2023/04/11 02:56:29;;;;;;;;;;;;;;;12.26;100.00;100631.34;4999491;28;763;-82
2023/04/11 02:58:55;;;;;;;;;;;;;;;12.27;100.00;100629.50;5001496;28;871;-82
2023/04/11 03:01:23;;;;;;;;;;;;;;;12.28;100.00;100628.50;5001788;28;1162;-82
2023/04/11 03:03:50;;;;;;;;;;;;;;;12.15;100.00;100619.88;5000124;28;919;-82
2023/04/11 03:06:16;;;;;;;;;;;;;;;12.10;100.00;100631.03;5001496;28;1959;-83
2023/04/11 03:08:42;;;;;;;;;;;;;;;12.15;100.00;100626.09;4999874;28;821;-82
2023/04/11 03:11:08;;;;;;;;;;;;;;;12.20;100.00;100620.31;4999820;28;1296;-82
2023/04/11 03:13:35;;;;;;;;;;;;;;;12.31;100.00;100625.56;5001345;28;808;-82
2023/04/11 03:16:02;;;;;;;;;;;;;;;12.30;100.00;100622.03;4999666;28;893;-82
2023/04/11 03:18:28;;;;;;;;;;;;;;;12.28;100.00;100617.75;5000062;28;813;-82
2023/04/11 03:20:54;;;;;;;;;;;;;;;12.29;100.00;100617.63;4998865;28;1210;-82
2023/04/11 03:23:20;;;;;;;;;;;;;;;12.36;100.00;100623.28;5000002;28;887;-82
2023/04/11 03:25:47;;;;;;;;;;;;;;;12.47;100.00;100627.69;5000732;28;1890;-82
2023/04/11 03:28:14;;;;;;;;;;;;;;;12.52;100.00;100630.81;4998454;28;774;-82
2023/04/11 03:30:42;;;;;;;;;;;;;;;12.53;100.00;100627.13;4998980;28;1190;-82
2023/04/11 03:33:08;;;;;;;;;;;;;;;12.55;100.00;100634.06;5000547;28;822;-82
2023/04/11 03:35:35;;;;;;;;;;;;;;;12.48;100.00;100629.38;4999227;28;913;-82
2023/04/11 03:38:01;;;;;;;;;;;;;;;12.54;100.00;100631.50;5000046;28;863;-82
2023/04/11 03:40:27;;;;;;;;;;;;;;;12.62;100.00;100628.97;4999955;28;1304;-82
2023/04/11 03:42:54;;;;;;;;;;;;;;;12.58;100.00;100630.22;4998996;28;935;-82
2023/04/11 03:45:21;;;;;;;;;;;;;;;12.59;100.00;100634.63;5000544;28;1894;-82
2023/04/11 03:47:46;;;;;;;;;;;;;;;12.73;100.00;100636.88;4999907;28;877;-82
2023/04/11 03:50:12;;;;;;;;;;;;;;;12.61;100.00;100636.19;5000287;28;1201;-82
2023/04/11 03:52:39;;;;;;;;;;;;;;;12.74;100.00;100640.44;4998806;28;866;-82
2023/04/11 03:55:05;;;;;;;;;;;;;;;12.71;100.00;100638.88;4999840;28;1028;-82
2023/04/11 03:57:31;;;;;;;;;;;;;;;12.72;100.00;100650.50;4999216;28;746;-82
2023/04/11 03:59:57;;;;;;;;;;;;;;;12.79;100.00;100647.09;4999893;28;1227;-82
2023/04/11 04:02:24;;;;;;;;;;;;;;;12.79;100.00;100657.88;5000434;28;820;-82
2023/04/11 04:04:57;;;;;;;;;;;;;;;12.39;100.00;100643.66;5000259;28;809;-82
2023/04/11 04:07:24;;;;;;;;;;;;;;;12.59;100.00;100640.88;4999452;28;1960;-82
2023/04/11 04:09:51;;;;;;;;;;;;;;;12.74;100.00;100641.28;4999678;28;1209;-82
2023/04/11 04:12:18;;;;;;;;;;;;;;;12.44;100.00;100636.88;4999776;28;868;-82
2023/04/11 04:14:45;;;;;;;;;;;;;;;12.65;100.00;100639.44;4999826;28;785;-82
2023/04/11 04:17:12;;;;;;;;;;;;;;;12.73;100.00;100639.56;4998657;28;828;-82
2023/04/11 04:19:38;;;;;;;;;;;;;;;12.60;100.00;100642.56;4999628;28;1273;-82
2023/04/11 04:22:10;;;;;;;;;;;;;;;12.55;100.00;100655.56;4999627;28;813;-82
2023/04/11 04:24:40;;;;;;;;;;;;;;;12.52;100.00;100647.78;5000585;28;693;-82
2023/04/11 04:27:12;;;;;;;;;;;;;;;12.65;100.00;100636.75;4998540;28;1890;-82
2023/04/11 04:29:45;;;;;;;;;;;;;;;12.68;100.00;100646.38;4999681;28;1253;-82
2023/04/11 04:32:19;;;;;;;;;;;;;;;12.63;100.00;100642.28;4999809;28;830;-82
2023/04/11 04:34:48;;;;;;;;;;;;;;;12.70;100.00;100652.47;4999914;28;563;-82
2023/04/11 04:37:24;;;;;;;;;;;;;;;12.80;100.00;100651.47;4998582;28;777;-82
2023/04/11 04:40:01;;;;;;;;;;;;;;;12.74;100.00;100646.66;4999173;28;1271;-82
2023/04/11 04:42:28;;;;;;;;;;;;;;;12.74;100.00;100659.28;4999568;28;611;-82
2023/04/11 04:44:55;;;;;;;;;;;;;;;12.42;100.00;100665.78;4998250;28;941;-82
2023/04/11 04:47:24;;;;;;;;;;;;;;;12.54;100.00;100671.88;4997301;28;1895;-82
2023/04/11 04:49:56;;;;;;;;;;;;;;;12.69;100.00;100670.47;4999642;28;1193;-82
2023/04/11 04:52:23;;;;;;;;;;;;;;;12.69;100.00;100673.16;4998115;28;823;-82
2023/04/11 04:54:49;;;;;;;;;;;;;;;12.69;100.00;100669.63;4997931;28;938;-82
2023/04/11 04:57:15;;;;;;;;;;;;;;;12.75;100.00;100674.44;4999191;28;880;-82
2023/04/11 04:59:43;;;;;;;;;;;;;;;12.53;100.00;100673.72;4999987;28;1218;-82
2023/04/11 05:02:09;;;;;;;;;;;;;;;12.48;100.00;100681.34;5000196;28;828;-82
2023/04/11 05:04:35;;;;;;;;;;;;;;;12.53;100.00;100672.84;5000655;28;805;-82
2023/04/11 05:07:01;;;;;;;;;;;;;;;12.65;100.00;100679.81;4999426;28;1902;-82
2023/04/11 05:09:27;;;;;;;;;;;;;;;12.72;100.00;100674.72;5000775;28;1290;-82
2023/04/11 05:11:53;;;;;;;;;;;;;;;12.76;100.00;100678.81;4999976;28;848;-82
2023/04/11 05:14:19;;;;;;;;;;;;;;;12.81;100.00;100681.94;4999884;28;734;-82
2023/04/11 05:16:45;;;;;;;;;;;;;;;12.81;100.00;100677.41;4997660;28;842;-81
2023/04/11 05:19:11;;;;;;;;;;;;;;;12.69;100.00;100675.84;4998514;28;819;-81
2023/04/11 05:21:37;;;;;;;;;;;;;;;12.78;100.00;100672.31;4999026;28;1245;-82
2023/04/11 05:24:04;;;;;;;;;;;;;;;12.72;100.00;100683.63;4999221;28;910;-82
2023/04/11 05:26:30;;;;;;;;;;;;;;;12.53;100.00;100687.16;4996959;28;1961;-81
2023/04/11 05:28:57;;;;;;;;;;;;;;;12.25;100.00;100686.13;4999260;28;896;-82
2023/04/11 05:31:24;;;;;;;;;;;;;;;12.43;100.00;100678.22;4999286;28;1233;-82
2023/04/11 05:33:51;;;;;;;;;;;;;;;12.51;100.00;100682.91;4998676;28;557;-82
2023/04/11 05:36:17;;;;;;;;;;;;;;;12.56;100.00;100678.78;4998642;28;923;-81
2023/04/11 05:38:43;;;;;;;;;;;;;;;12.55;100.00;100690.56;4998011;28;836;-82
2023/04/11 05:41:10;;;;;;;;;;;;;;;12.58;100.00;100687.56;4998724;28;1260;-82
2023/04/11 05:43:37;;;;;;;;;;;;;;;12.62;100.00;100694.41;4998195;28;828;-82
2023/04/11 05:46:03;;;;;;;;;;;;;;;12.70;100.00;100690.16;4998013;28;1895;-82
2023/04/11 05:48:29;;;;;;;;;;;;;;;12.78;100.00;100692.97;4997481;28;808;-81
2023/04/11 05:50:57;;;;;;;;;;;;;;;12.83;100.00;100706.88;4997633;28;1193;-81
2023/04/11 05:53:23;;;;;;;;;;;;;;;12.90;100.00;100705.31;4997052;28;753;-82
2023/04/11 05:55:49;;;;;;;;;;;;;;;12.96;100.00;100704.72;4998301;28;864;-82
2023/04/11 05:58:15;;;;;;;;;;;;;;;12.76;100.00;100711.09;4997691;28;868;-82
2023/04/11 06:00:41;;;;;;;;;;;;;;;12.79;100.00;100700.94;5001037;28;1189;-82
2023/04/11 06:03:08;;;;;;;;;;;;;;;12.92;100.00;100708.72;5002596;28;911;-82
2023/04/11 06:05:35;;;;;;;;;;;;;;;12.97;100.00;100709.13;5002206;28;809;-82
2023/04/11 06:08:02;;;;;;;;;;;;;;;12.90;100.00;100706.16;5002047;28;1949;-82
2023/04/11 06:10:30;;;;;;;;;;;;;;;12.94;100.00;100712.09;5001850;28;1193;-82
2023/04/11 06:12:56;;;;;;;;;;;;;;;12.96;100.00;100714.66;5002468;28;883;-82
2023/04/11 06:15:23;;;;;;;;;;;;;;;12.78;100.00;100707.31;5002018;28;796;-82
2023/04/11 06:17:49;;;;;;;;;;;;;;;12.82;100.00;100706.03;5001474;28;797;-82
2023/04/11 06:20:15;;;;;;;;;;;;;;;12.90;100.00;100724.16;5001850;28;1273;-82
2023/04/11 06:22:42;;;;;;;;;;;;;;;12.83;100.00;100712.25;5001580;28;719;-82
2023/04/11 06:25:09;;;;;;;;;;;;;;;12.82;100.00;100719.47;5002909;28;786;-81
2023/04/11 06:27:35;;;;;;;;;;;;;;;13.09;100.00;100708.00;5003707;28;1942;-80
2023/04/11 06:30:01;;;;;;;;;;;;;;;13.18;100.00;100714.38;5000824;28;1261;-80
2023/04/11 06:32:27;;;;;;;;;;;;;;;13.20;100.00;100715.97;5002241;28;848;-83
2023/04/11 06:34:53;;;;;;;;;;;;;;;13.31;100.00;100728.41;5003409;28;749;-82
2023/04/11 06:37:19;;;;;;;;;;;;;;;13.42;100.00;100719.31;5003788;28;895;-82
2023/04/11 06:39:46;;;;;;;;;;;;;;;13.49;100.00;100726.69;5003563;28;1284;-82
2023/04/11 06:42:12;;;;;;;;;;;;;;;13.44;100.00;100720.88;5002642;28;854;-82
2023/04/11 06:44:38;;;;;;;;;;;;;;;13.48;100.00;100726.84;5003740;28;815;-82
2023/04/11 06:47:04;;;;;;;;;;;;;;;13.37;100.00;100726.97;5001944;28;1898;-82
2023/04/11 06:49:30;;;;;;;;;;;;;;;13.26;100.00;100727.13;5001689;28;1308;-82
2023/04/11 06:51:56;;;;;;;;;;;;;;;13.28;100.00;100726.03;5002582;28;797;-82
2023/04/11 06:54:22;;;;;;;;;;;;;;;13.32;100.00;100726.56;5002058;28;899;-82
2023/04/11 06:56:50;;;;;;;;;;;;;;;13.18;100.00;100731.38;5000570;28;801;-82
2023/04/11 06:59:20;;;;;;;;;;;;;;;13.22;100.00;100728.44;5001270;28;907;-82
2023/04/11 07:01:47;;;;;;;;;;;;;;;13.44;100.00;100731.66;5000501;28;855;-82
2023/04/11 07:04:13;;;;;;;;;;;;;;;13.45;100.00;100733.34;5001329;28;830;-82
2023/04/11 07:06:40;;;;;;;;;;;;;;;13.60;100.00;100727.53;5001299;28;1867;-82
2023/04/11 07:09:06;;;;;;;;;;;;;;;13.72;100.00;100739.81;5002625;28;832;-82
2023/04/11 07:11:32;;;;;;;;;;;;;;;13.50;100.00;100738.31;5000689;28;1166;-83
2023/04/11 07:13:59;;;;;;;;;;;;;;;13.42;100.00;100752.50;5001844;28;896;-82
2023/04/11 07:16:25;;;;;;;;;;;;;;;13.32;100.00;100751.66;5001523;28;789;-83
2023/04/11 07:18:52;;;;;;;;;;;;;;;13.38;100.00;100751.13;5003334;28;746;-80
2023/04/11 07:21:18;;;;;;;;;;;;;;;13.56;100.00;100743.13;5003297;28;1233;-81
2023/04/11 07:23:44;;;;;;;;;;;;;;;13.43;100.00;100751.50;5004708;28;820;-80
2023/04/11 07:26:12;;;;;;;;;;;;;;;13.51;100.00;100749.94;5003802;28;895;-81
2023/04/11 07:28:39;;;;;;;;;;;;;;;13.53;100.00;100753.34;5003075;28;1891;-81
2023/04/11 07:31:09;;;;;;;;;;;;;;;13.54;100.00;100760.44;5003362;28;1281;-81
2023/04/11 07:33:36;;;;;;;;;;;;;;;13.47;100.00;100750.25;5002292;28;863;-80
2023/04/11 07:36:05;;;;;;;;;;;;;;;13.46;100.00;100761.13;5002786;28;813;-81
2023/04/11 07:38:36;;;;;;;;;;;;;;;13.28;100.00;100762.88;5002306;28;822;-81
2023/04/11 07:41:03;;;;;;;;;;;;;;;13.47;100.00;100768.25;5000763;28;1186;-83
2023/04/11 07:43:30;;;;;;;;;;;;;;;13.50;100.00;100759.88;5000876;28;808;-83
2023/04/11 07:45:57;;;;;;;;;;;;;;;13.51;100.00;100782.28;5001195;28;862;-82
2023/04/11 07:48:26;;;;;;;;;;;;;;;13.57;100.00;100777.19;5001832;28;1951;-82
2023/04/11 07:50:53;;;;;;;;;;;;;;;13.68;100.00;100776.16;5002939;28;1213;-82
2023/04/11 07:53:20;;;;;;;;;;;;;;;13.52;100.00;100778.59;5000561;28;900;-83
2023/04/11 07:55:46;;;;;;;;;;;;;;;13.53;100.00;100774.91;5000370;28;915;-83
2023/04/11 07:58:12;;;;;;;;;;;;;;;13.55;100.00;100778.28;4999689;28;908;-82
2023/04/11 08:00:38;;;;;;;;;;;;;;;13.76;100.00;100782.53;4999888;28;1217;-82
2023/04/11 08:03:06;;;;;;;;;;;;;;;13.67;100.00;100782.56;4999835;28;865;-82
2023/04/11 08:05:34;;;;;;;;;;;;;;;13.77;100.00;100789.63;5000255;28;733;-82
2023/04/11 08:08:01;;;;;;;;;;;;;;;13.75;100.00;100806.91;5000160;28;1953;-82
2023/04/11 08:10:26;;;;;;;;;;;;;;;13.85;100.00;100799.66;4998835;28;1295;-82
2023/04/11 08:12:54;;;;;;;;;;;;;;;13.92;100.00;100814.25;5000412;28;804;-82
2023/04/11 08:15:20;;;;;;;;;;;;;;;14.00;100.00;100818.94;4999095;28;914;-82
2023/04/11 08:17:48;;;;;;;;;;;;;;;14.13;100.00;100818.59;4998774;28;769;-82
2023/04/11 08:20:15;;;;;;;;;;;;;;;14.12;100.00;100825.00;4999213;28;1335;-82
2023/04/11 08:22:45;;;;;;;;;;;;;;;14.00;100.00;100833.28;4998333;28;837;-82
2023/04/11 08:25:13;;;;;;;;;;;;;;;13.74;100.00;100845.66;4999399;28;817;-82
2023/04/11 08:27:39;;;;;;;;;;;;;;;13.52;100.00;100854.06;4998982;28;1952;-82
2023/04/11 08:30:09;;;;;;;;;;;;;;;13.56;100.00;100852.75;4999707;28;1284;-82
2023/04/11 08:32:36;;;;;;;;;;;;;;;13.45;100.00;100848.38;4999612;28;1008;-82
2023/04/11 08:35:03;;;;;;;;;;;;;;;13.43;100.00;100842.28;4999635;28;892;-82
2023/04/11 08:37:29;;;;;;;;;;;;;;;13.34;100.00;100856.59;4999355;28;753;-82
2023/04/11 08:39:56;;;;;;;;;;;;;;;13.37;100.00;100848.22;4999695;28;1211;-82
2023/04/11 08:42:29;;;;;;;;;;;;;;;13.33;100.00;100852.19;4999708;28;807;-82
2023/04/11 08:44:59;;;;;;;;;;;;;;;13.33;100.00;100865.66;4998557;28;771;-82
2023/04/11 08:47:25;;;;;;;;;;;;;;;13.51;100.00;100865.81;4999287;28;1871;-82
2023/04/11 08:49:52;;;;;;;;;;;;;;;13.59;100.00;100874.91;5000729;28;1201;-83
2023/04/11 08:52:20;;;;;;;;;;;;;;;13.63;100.00;100867.38;5004094;28;1045;-83
2023/04/11 08:54:47;;;;;;;;;;;;;;;13.84;100.00;100867.22;5003558;28;959;-82
2023/04/11 08:57:24;;;;;;;;;;;;;;;13.95;100.00;100878.69;5000264;28;768;-82
2023/04/11 08:59:54;;;;;;;;;;;;;;;14.13;100.00;100884.19;5001563;28;1292;-82
2023/04/11 09:02:21;;;;;;;;;;;;;;;14.16;100.00;100886.63;5000402;28;824;-82
2023/04/11 09:04:47;;;;;;;;;;;;;;;14.32;100.00;100878.75;4999825;28;888;-82
2023/04/11 09:07:15;;;;;;;;;;;;;;;14.32;100.00;100880.59;4999263;28;1918;-82
2023/04/11 09:09:42;;;;;;;;;;;;;;;14.46;100.00;100869.38;4998522;28;1721;-82
2023/04/11 09:12:14;;;;;;;;;;;;;;;14.75;100.00;100873.78;4999031;28;1547;-83
2023/04/11 09:14:40;;;;;;;;;;;;;;;15.03;100.00;100874.63;4999632;28;1444;-83
2023/04/11 09:17:12;;;;;;;;;;;;;;;15.13;100.00;100870.00;4992321;28;1434;-82
2023/04/11 09:19:40;;;;;;;;;;;;;;;15.13;100.00;100870.84;4980143;28;1465;-83
2023/04/11 09:22:07;;;;;;;;;;;;;;;14.97;100.00;100873.38;4980954;28;643;-83
2023/04/11 09:24:34;;;;;;;;;;;;;;;14.78;100.00;100887.00;4981998;28;734;-82
2023/04/11 09:27:18;;;;;;;;;;;;;;;14.60;100.00;100882.38;4995045;28;1882;-84
2023/04/11 09:29:45;;;;;;;;;;;;;;;14.70;100.00;100890.44;4979642;28;1249;-83
2023/04/11 09:32:28;;;;;;;;;;;;;;;14.75;100.00;100880.06;4984425;28;930;-82
2023/04/11 09:35:15;;;;;;;;;;;;;;;14.83;100.00;100880.13;4988455;28;722;-82
2023/04/11 09:37:47;;;;;;;;;;;;;;;15.14;100.00;100877.97;4986000;28;925;-83
2023/04/11 09:40:15;;;;;;;;;;;;;;;15.20;100.00;100888.16;4989844;28;1276;-83
2023/04/11 09:42:42;;;;;;;;;;;;;;;15.21;100.00;100895.25;4990989;28;647;-85
2023/04/11 09:45:19;;;;;;;;;;;;;;;14.76;100.00;100922.25;4990043;28;770;-84
2023/04/11 09:47:46;;;;;;;;;;;;;;;14.67;100.00;100939.34;4987713;28;1883;-84
2023/04/11 09:50:13;;;;;;;;;;;;;;;14.04;100.00;100947.94;4991825;28;1210;-83
2023/04/11 09:52:41;;;;;;;;;;;;;;;13.87;100.00;100928.97;4992829;28;762;-84
2023/04/11 09:55:12;;;;;;;;;;;;;;;13.70;100.00;100927.81;4991580;28;900;-85
2023/04/11 09:57:47;;;;;;;;;;;;;;;13.52;100.00;100926.81;4990554;28;875;-84
2023/04/11 10:00:19;;;;;;;;;;;;;;;13.60;100.00;100926.97;4990703;28;1262;-83
2023/04/11 10:02:48;;;;;;;;;;;;;;;13.50;100.00;100929.66;4989384;28;734;-85
2023/04/11 10:05:17;;;;;;;;;;;;;;;13.61;100.00;100918.75;4988840;28;806;-86
2023/04/11 10:07:46;;;;;;;;;;;;;;;13.82;100.00;100933.91;4991634;28;1890;-86
2023/04/11 10:10:18;;;;;;;;;;;;;;;13.88;100.00;100931.50;4988483;28;1305;-87
2023/04/11 10:12:45;;;;;;;;;;;;;;;14.24;100.00;100934.44;4988015;28;898;-87
2023/04/11 10:15:18;;;;;;;;;;;;;;;14.63;100.00;100936.06;4987743;28;855;-85
2023/04/11 10:18:09;;;;;;;;;;;;;;;14.97;100.00;100918.47;4988874;28;1001;-85
2023/04/11 10:20:39;;;;;;;;;;;;;;;15.12;100.00;100919.63;4985264;28;1320;-82
2023/04/11 10:23:06;;;;;;;;;;;;;;;15.15;100.00;100928.31;4985307;28;837;-84
2023/04/11 10:26:06;;;;;;;;;;;;;;;15.37;100.00;100918.06;4984581;28;806;-83
2023/04/11 10:28:37;;;;;;;;;;;;;;;15.74;100.00;100920.69;4985006;28;1874;-82
2023/04/11 10:31:16;;;;;;;;;;;;;;;16.02;100.00;100916.84;4984950;28;1304;-83
2023/04/11 10:34:10;;;;;;;;;;;;;;;16.08;100.00;100920.78;4986986;28;533;-83
2023/04/11 10:37:06;;;;;;;;;;;;;;;16.17;100.00;100924.41;5003985;28;1733;-83
2023/04/11 10:39:50;;;;;;;;;;;;;;;16.37;100.00;100917.78;5008241;28;1380;-81
2023/04/11 10:42:26;;;;;;;;;;;;;;;16.26;100.00;100921.59;5009675;28;860;-81
2023/04/11 10:45:18;;;;;;;;;;;;;;;16.23;100.00;100921.94;5007960;28;1390;-82
2023/04/11 10:47:50;;;;;;;;;;;;;;;16.25;100.00;100936.16;5008103;28;1886;-81
2023/04/11 10:50:22;;;;;;;;;;;;;;;16.43;100.00;100928.00;5010176;28;1571;-81
2023/04/11 10:52:48;;;;;;;;;;;;;;;16.64;100.00;100939.28;5009206;28;1409;-81
2023/04/11 10:55:16;;;;;;;;;;;;;;;16.66;100.00;100954.53;5010151;28;840;-81
2023/04/11 10:58:02;;;;;;;;;;;;;;;16.56;100.00;100949.22;5009067;28;1368;-81
2023/04/11 11:00:28;;;;;;;;;;;;;;;16.57;100.00;100961.75;4989208;28;1223;-81
2023/04/11 11:02:55;;;;;;;;;;;;;;;16.67;93.08;100962.50;4991145;28;1375;-81
2023/04/11 11:05:23;;;;;;;;;;;;;;;16.66;91.16;100974.34;5009117;28;1645;-81
2023/04/11 11:07:51;;;;;;;;;;;;;;;16.27;88.21;100984.72;5009983;28;1932;-81
2023/04/11 11:10:35;;;;;;;;;;;;;;;16.16;80.62;100968.72;5009598;28;1305;-81
2023/04/11 11:13:01;;;;;;;;;;;;;;;16.24;84.51;100985.88;5009712;28;1495;-81
2023/04/11 11:15:28;;;;;;;;;;;;;;;16.67;85.26;100986.00;5009736;28;946;-82
2023/04/11 11:17:54;;;;;;;;;;;;;;;16.81;75.19;100988.16;5011579;28;825;-82
2023/04/11 11:20:20;;;;;;;;;;;;;;;17.21;80.61;100990.25;5007592;28;1399;-81
2023/04/11 11:23:00;;;;;;;;;;;;;;;17.41;77.42;100982.69;5009510;28;821;-83
2023/04/11 11:25:26;;;;;;;;;;;;;;;17.90;78.08;100999.13;5006574;28;1515;-82
2023/04/11 11:27:58;;;;;;;;;;;;;;;18.00;71.27;100983.53;5007533;28;1863;-82
2023/04/11 11:30:24;;;;;;;;;;;;;;;17.88;69.93;101002.00;4997059;28;3063;-83
2023/04/11 11:32:50;;;;;;;;;;;;;;;17.57;68.46;100999.00;5005378;28;1617;-83
2023/04/11 11:35:17;;;;;;;;;;;;;;;17.36;69.44;100999.44;5006344;28;1626;-83
2023/04/11 11:37:43;;;;;;;;;;;;;;;17.21;73.70;101011.94;5006615;28;578;-83
2023/04/11 11:40:12;;;;;;;;;;;;;;;16.88;78.17;101019.03;5005699;28;1294;-83
2023/04/11 11:42:39;;;;;;;;;;;;;;;16.65;83.15;101024.09;5005529;28;864;-83
2023/04/11 11:45:19;;;;;;;;;;;;;;;16.53;81.67;101039.75;5006128;28;812;-83
2023/04/11 11:47:46;;;;;;;;;;;;;;;16.29;100.00;101042.25;5006189;28;2951;-83
2023/04/11 11:50:29;;;;;;;;;;;;;;;16.13;100.00;101082.72;5006482;28;1304;-83
2023/04/11 11:53:11;;;;;;;;;;;;;;;15.46;100.00;101090.19;5006664;28;854;-82
2023/04/11 11:55:37;;;;;;;;;;;;;;;15.26;100.00;101075.91;5005880;28;1360;-83
2023/04/11 11:58:04;;;;;;;;;;;;;;;15.03;100.00;101078.09;5003751;28;860;-84
2023/04/11 12:00:36;;;;;;;;;;;;;;;15.06;100.00;101085.91;5006364;28;1274;-84
2023/04/11 12:03:04;;;;;;;;;;;;;;;15.03;100.00;101090.75;5007474;28;1169;-84
2023/04/11 12:05:31;;;;;;;;;;;;;;;14.90;100.00;101088.38;5004884;28;841;-83
2023/04/11 12:08:00;;;;;;;;;;;;;;;14.83;100.00;101090.78;5005591;28;1874;-83
2023/04/11 12:10:36;;;;;;;;;;;;;;;14.93;100.00;101088.91;5006504;28;1230;-83
2023/04/11 12:13:18;;;;;;;;;;;;;;;15.05;100.00;101097.72;5001872;28;1598;-83
2023/04/11 12:15:51;;;;;;;;;;;;;;;14.73;100.00;101100.75;4999596;28;517;-83
2023/04/11 12:18:21;;;;;;;;;;;;;;;14.61;100.00;101105.44;4998260;28;855;-84
2023/04/11 12:20:47;;;;;;;;;;;;;;;14.56;100.00;101109.59;5000521;28;1197;-83
2023/04/11 12:23:13;;;;;;;;;;;;;;;14.45;100.00;101118.66;4999264;28;1478;-84
2023/04/11 12:25:40;;;;;;;;;;;;;;;14.59;100.00;101123.66;4994947;28;1161;-82
2023/04/11 12:28:07;;;;;;;;;;;;;;;14.38;100.00;101124.75;4998614;28;1949;-83
2023/04/11 12:30:33;;;;;;;;;;;;;;;14.23;100.00;101122.47;4999623;28;1554;-84
2023/04/11 12:32:59;;;;;;;;;;;;;;;14.26;100.00;101124.91;4995831;28;1567;-83
2023/04/11 12:35:25;;;;;;;;;;;;;;;14.11;100.00;101125.44;4999250;28;749;-83
2023/04/11 12:37:51;;;;;;;;;;;;;;;14.00;100.00;101137.19;5000307;28;1251;-82
2023/04/11 12:40:17;;;;;;;;;;;;;;;14.15;100.00;101137.63;5000778;28;1380;-82
2023/04/11 12:42:45;;;;;;;;;;;;;;;14.34;100.00;101137.66;5001088;28;659;-82
2023/04/11 12:45:12;;;;;;;;;;;;;;;14.38;100.00;101133.72;5000730;28;805;-82
2023/04/11 12:47:38;;;;;;;;;;;;;;;14.21;100.00;101137.94;5000727;28;794;-83